createdAt,value
2018-05-13T00:02:25.487Z,19.39
2018-05-13T00:04:53.836Z,19.55
2018-05-13T00:07:22.210Z,19.64
2018-05-13T00:09:50.560Z,19.68
2018-05-13T00:12:18.903Z,19.43
2018-05-13T00:14:47.628Z,19.46
2018-05-13T00:17:16.729Z,19.36
2018-05-13T00:19:45.815Z,19.29
2018-05-13T00:22:14.940Z,19.19
2018-05-13T00:24:43.321Z,19.29
2018-05-13T00:27:11.673Z,19.55
2018-05-13T00:29:40.812Z,19.53
2018-05-13T00:32:09.139Z,19.53
2018-05-13T00:34:38.223Z,19.56
2018-05-13T00:37:06.916Z,19.29
2018-05-13T00:39:35.226Z,19.25
2018-05-13T00:42:03.590Z,19.15
2018-05-13T00:44:32.728Z,18.96
2018-05-13T00:47:01.072Z,19.08
2018-05-13T00:49:29.408Z,19.17
2018-05-13T00:51:57.755Z,19.14
2018-05-13T00:54:43.598Z,18.96
2018-05-13T00:57:12.407Z,19.11
2018-05-13T00:59:40.772Z,19.08
2018-05-13T01:02:09.875Z,19.23
2018-05-13T01:04:39.008Z,19.34
2018-05-13T01:07:07.347Z,19.49
2018-05-13T01:09:36.443Z,19.50
2018-05-13T01:12:04.826Z,19.26
2018-05-13T01:14:33.943Z,19.27
2018-05-13T01:17:02.245Z,19.14
2018-05-13T01:19:30.808Z,19.29
2018-05-13T01:21:59.155Z,19.30
2018-05-13T01:24:28.260Z,19.06
2018-05-13T01:26:57.416Z,19.04
2018-05-13T01:29:25.731Z,19.01
2018-05-13T01:31:54.075Z,19.13
2018-05-13T01:34:22.411Z,19.05
2018-05-13T01:36:50.756Z,18.87
2018-05-13T01:39:19.852Z,18.81
2018-05-13T01:41:48.459Z,18.97
2018-05-13T01:44:17.560Z,18.95
2018-05-13T01:46:46.669Z,18.93
2018-05-13T01:49:15.043Z,18.91
2018-05-13T01:51:43.428Z,18.85
2018-05-13T01:54:11.778Z,18.98
2018-05-13T01:56:41.022Z,18.69
2018-05-13T01:59:09.341Z,18.70
2018-05-13T02:01:37.665Z,18.75
2018-05-13T02:04:06.116Z,18.80
2018-05-13T02:06:34.453Z,18.73
2018-05-13T02:09:02.801Z,18.88
2018-05-13T02:11:31.147Z,18.86
2018-05-13T02:13:59.473Z,18.77
2018-05-13T02:16:27.790Z,18.85
2018-05-13T02:18:56.186Z,18.64
2018-05-13T02:21:24.507Z,18.61
2018-05-13T02:23:52.817Z,18.52
2018-05-13T02:26:21.469Z,18.66
2018-05-13T02:28:50.572Z,18.61
2018-05-13T02:31:18.900Z,18.59
2018-05-13T02:33:48.033Z,18.62
2018-05-13T02:36:16.337Z,18.54
2018-05-13T02:38:44.651Z,18.65
2018-05-13T02:41:13.007Z,18.66
2018-05-13T02:43:42.099Z,18.71
2018-05-13T02:46:10.425Z,18.66
2018-05-13T02:48:40.078Z,18.66
2018-05-13T02:51:08.430Z,18.60
2018-05-13T02:53:36.783Z,18.38
2018-05-13T02:56:05.944Z,18.25
2018-05-13T02:58:34.681Z,18.30
2018-05-13T03:01:03.764Z,18.28
2018-05-13T03:03:32.871Z,18.40
2018-05-13T03:06:01.940Z,18.37
2018-05-13T03:08:31.099Z,18.49
2018-05-13T03:10:59.824Z,18.44
2018-05-13T03:13:28.123Z,18.44
2018-05-13T03:15:56.455Z,18.39
2018-05-13T03:18:24.804Z,18.46
2018-05-13T03:20:53.145Z,18.30
2018-05-13T03:23:22.278Z,18.45
2018-05-13T03:25:50.692Z,18.37
2018-05-13T03:28:19.083Z,18.18
2018-05-13T03:30:47.484Z,18.12
2018-05-13T03:33:16.191Z,17.99
2018-05-13T03:35:44.520Z,18.00
2018-05-13T03:38:12.815Z,17.92
2018-05-13T03:40:41.205Z,17.96
2018-05-13T03:43:09.536Z,18.06
2018-05-13T03:45:37.875Z,18.12
2018-05-13T03:48:06.991Z,18.14
2018-05-13T03:50:36.168Z,18.30
2018-05-13T03:53:04.514Z,18.39
2018-05-13T03:55:33.062Z,18.40
2018-05-13T03:58:01.401Z,18.35
2018-05-13T04:00:29.740Z,18.22
2018-05-13T04:02:58.105Z,18.26
2018-05-13T04:05:26.464Z,18.38
2018-05-13T04:11:42.426Z,18.25
2018-05-13T04:14:28.977Z,18.38
2018-05-13T04:16:58.043Z,18.42
2018-05-13T04:19:26.359Z,18.31
2018-05-13T04:21:54.727Z,18.16
2018-05-13T04:24:23.856Z,18.38
2018-05-13T04:26:52.154Z,18.42
2018-05-13T04:29:20.532Z,18.42
2018-05-13T04:31:48.927Z,18.39
2018-05-13T04:34:17.254Z,18.43
2018-05-13T04:36:45.792Z,18.56
2018-05-13T04:39:14.116Z,18.59
2018-05-13T04:41:42.420Z,18.49
2018-05-13T04:44:10.794Z,18.59
2018-05-13T04:46:39.123Z,18.41
2018-05-13T04:49:07.447Z,18.56
2018-05-13T04:51:35.816Z,18.83
2018-05-13T04:54:04.144Z,18.95
2018-05-13T04:56:32.459Z,18.34
2018-05-13T04:59:01.961Z,18.50
2018-05-13T05:01:31.235Z,18.58
2018-05-13T05:03:59.605Z,18.59
2018-05-13T05:06:27.990Z,18.65
2018-05-13T05:08:56.392Z,18.73
2018-05-13T05:11:24.707Z,18.80
2018-05-13T05:13:53.091Z,19.00
2018-05-13T05:16:21.428Z,19.27
2018-05-13T05:18:49.772Z,19.33
2018-05-13T05:21:18.579Z,19.36
2018-05-13T05:23:46.893Z,19.67
2018-05-13T05:26:15.230Z,19.44
2018-05-13T05:28:43.577Z,19.29
2018-05-13T05:31:11.886Z,19.41
2018-05-13T05:33:40.226Z,19.05
2018-05-13T05:36:08.583Z,19.16
2018-05-13T05:38:36.912Z,19.40
2018-05-13T05:41:05.232Z,19.24
2018-05-13T05:43:34.442Z,19.32
2018-05-13T05:46:02.778Z,19.33
2018-05-13T05:48:31.111Z,19.55
2018-05-13T05:50:59.473Z,19.53
2018-05-13T05:53:27.819Z,19.42
2018-05-13T05:55:56.140Z,19.48
2018-05-13T05:58:24.518Z,19.59
2018-05-13T06:00:52.834Z,19.80
2018-05-13T06:03:21.260Z,19.67
2018-05-13T06:05:50.020Z,19.93
2018-05-13T06:08:18.356Z,20.11
2018-05-13T06:10:46.687Z,20.10
2018-05-13T06:13:15.093Z,20.55
2018-05-13T06:15:44.185Z,20.74
2018-05-13T06:18:13.286Z,20.95
2018-05-13T06:20:41.663Z,20.69
2018-05-13T06:23:10.769Z,20.48
2018-05-13T06:25:39.105Z,20.20
2018-05-13T06:28:07.811Z,20.63
2018-05-13T06:30:36.158Z,20.57
2018-05-13T06:33:04.478Z,20.20
2018-05-13T06:35:33.611Z,20.73
2018-05-13T06:38:01.934Z,21.35
2018-05-13T06:40:30.283Z,21.66
2018-05-13T06:42:58.638Z,21.96
2018-05-13T06:45:26.976Z,21.72
2018-05-13T06:47:55.293Z,21.60
2018-05-13T06:50:24.136Z,21.65
2018-05-13T06:52:52.469Z,22.14
2018-05-13T06:55:20.811Z,22.71
2018-05-13T06:57:49.928Z,22.86
2018-05-13T07:00:18.293Z,22.91
2018-05-13T07:02:47.441Z,23.08
2018-05-13T07:05:15.754Z,22.79
2018-05-13T07:07:44.087Z,23.22
2018-05-13T07:10:12.410Z,23.63
2018-05-13T07:12:41.915Z,23.45
2018-05-13T07:15:10.250Z,23.64
2018-05-13T07:17:38.598Z,23.69
2018-05-13T07:20:06.985Z,23.92
2018-05-13T07:22:35.350Z,24.17
2018-05-13T07:25:04.450Z,24.35
2018-05-13T07:27:33.594Z,24.54
2018-05-13T07:30:01.978Z,24.70
2018-05-13T07:32:30.307Z,24.75
2018-05-13T07:34:58.882Z,24.95
2018-05-13T07:37:27.974Z,24.91
2018-05-13T07:39:57.099Z,25.16
2018-05-13T07:42:25.455Z,25.14
2018-05-13T07:44:55.008Z,25.22
2018-05-13T07:47:23.347Z,25.37
2018-05-13T07:49:52.470Z,25.28
2018-05-13T07:52:20.820Z,25.52
2018-05-13T07:54:49.994Z,25.72
2018-05-13T07:57:18.755Z,25.73
2018-05-13T07:59:47.076Z,26.03
2018-05-13T08:02:16.174Z,26.30
2018-05-13T08:04:45.309Z,26.09
2018-05-13T08:07:13.623Z,26.19
2018-05-13T08:09:41.948Z,26.57
2018-05-13T08:12:10.332Z,26.30
2018-05-13T08:14:38.636Z,25.41
2018-05-13T08:17:06.958Z,25.66
2018-05-13T08:19:36.456Z,26.25
2018-05-13T08:22:04.795Z,26.83
2018-05-13T08:24:33.128Z,26.96
2018-05-13T08:27:02.260Z,26.85
2018-05-13T08:29:30.586Z,27.23
2018-05-13T08:31:58.909Z,27.66
2018-05-13T08:34:27.307Z,27.80
2018-05-13T08:36:55.648Z,28.08
2018-05-13T08:39:24.771Z,28.01
2018-05-13T08:41:53.708Z,27.73
2018-05-13T08:44:22.725Z,27.69
2018-05-13T08:46:51.093Z,27.50
2018-05-13T08:49:20.229Z,27.79
2018-05-13T08:51:48.565Z,27.52
2018-05-13T08:54:16.920Z,27.45
2018-05-13T08:56:45.304Z,26.85
2018-05-13T08:59:13.655Z,27.27
2018-05-13T09:01:41.986Z,27.73
2018-05-13T09:04:11.484Z,27.77
2018-05-13T09:06:39.853Z,27.74
2018-05-13T09:09:08.185Z,27.63
2018-05-13T09:11:36.527Z,27.63
2018-05-13T09:14:04.900Z,27.32
2018-05-13T09:16:33.184Z,27.96
2018-05-13T09:19:01.536Z,28.40
2018-05-13T09:21:29.855Z,28.90
2018-05-13T09:23:58.927Z,29.29
2018-05-13T09:26:27.338Z,29.55
2018-05-13T09:28:55.688Z,29.14
2018-05-13T09:31:24.035Z,29.44
2018-05-13T09:33:52.479Z,29.66
2018-05-13T09:36:21.566Z,29.63
2018-05-13T09:38:49.904Z,29.51
2018-05-13T09:41:18.271Z,29.65
2018-05-13T09:43:46.612Z,29.46
2018-05-13T09:46:15.024Z,29.78
2018-05-13T09:48:43.607Z,29.34
2018-05-13T09:51:11.972Z,28.89
2018-05-13T09:53:40.333Z,29.00
2018-05-13T09:56:08.701Z,29.36
2018-05-13T09:58:37.114Z,29.80
2018-05-13T10:01:05.436Z,29.57
2018-05-13T10:03:33.822Z,30.03
2018-05-13T10:06:02.171Z,30.60
2018-05-13T10:08:30.493Z,30.17
2018-05-13T10:10:59.223Z,30.62
2018-05-13T10:13:27.564Z,30.79
2018-05-13T10:15:56.644Z,30.54
2018-05-13T10:18:24.992Z,30.36
2018-05-13T10:20:53.334Z,30.27
2018-05-13T10:23:21.653Z,30.11
2018-05-13T10:25:50.041Z,29.80
2018-05-13T10:28:18.362Z,29.77
2018-05-13T10:30:46.684Z,29.64
2018-05-13T10:33:15.948Z,29.56
2018-05-13T10:35:45.040Z,30.13
2018-05-13T10:38:13.363Z,30.22
2018-05-13T10:40:41.725Z,30.38
2018-05-13T10:43:10.828Z,30.66
2018-05-13T10:45:39.173Z,30.68
2018-05-13T10:48:07.546Z,30.46
2018-05-13T10:50:36.647Z,30.23
2018-05-13T10:53:05.792Z,30.43
2018-05-13T10:55:34.351Z,31.18
2018-05-13T10:58:02.694Z,31.11
2018-05-13T11:00:31.773Z,31.45
2018-05-13T11:03:00.139Z,30.96
2018-05-13T11:05:28.469Z,31.46
2018-05-13T11:07:56.800Z,30.70
2018-05-13T11:10:25.152Z,30.66
2018-05-13T11:12:53.485Z,30.82
2018-05-13T11:15:22.575Z,30.83
2018-05-13T11:17:51.191Z,30.81
2018-05-13T11:20:19.574Z,31.07
2018-05-13T11:22:47.916Z,30.57
2018-05-13T11:25:17.138Z,30.60
2018-05-13T11:27:45.548Z,30.83
2018-05-13T11:30:13.970Z,31.38
2018-05-13T11:32:42.324Z,31.09
2018-05-13T11:35:10.648Z,31.34
2018-05-13T11:37:39.718Z,31.48
2018-05-13T11:40:08.223Z,31.53
2018-05-13T11:42:37.636Z,31.31
2018-05-13T11:45:06.748Z,31.08
2018-05-13T11:47:35.102Z,30.82
2018-05-13T11:50:04.204Z,31.32
2018-05-13T11:52:32.548Z,31.07
2018-05-13T11:55:00.918Z,30.93
2018-05-13T11:57:29.240Z,30.82
2018-05-13T11:59:57.596Z,30.56
2018-05-13T12:02:26.391Z,29.80
2018-05-13T12:04:55.413Z,29.77
2018-05-13T12:07:23.732Z,29.93
2018-05-13T12:09:52.105Z,29.72
2018-05-13T12:12:20.468Z,29.21
2018-05-13T12:14:48.822Z,29.62
2018-05-13T12:17:17.935Z,30.06
2018-05-13T12:19:46.258Z,30.10
2018-05-13T12:22:15.365Z,29.64
2018-05-13T12:24:43.992Z,30.18
2018-05-13T12:27:12.304Z,30.18
2018-05-13T12:29:40.631Z,30.11
2018-05-13T12:32:09.026Z,30.81
2018-05-13T12:34:37.340Z,30.69
2018-05-13T12:37:05.665Z,29.94
2018-05-13T12:39:34.808Z,30.08
2018-05-13T12:42:03.159Z,30.41
2018-05-13T12:44:31.501Z,30.41
2018-05-13T12:47:00.315Z,30.51
2018-05-13T12:49:28.647Z,30.74
2018-05-13T12:51:56.978Z,30.11
2018-05-13T12:54:25.325Z,30.33
2018-05-13T12:56:53.661Z,30.84
2018-05-13T12:59:22.015Z,30.93
2018-05-13T13:01:50.367Z,30.51
2018-05-13T13:04:19.502Z,30.48
2018-05-13T13:06:47.832Z,30.92
2018-05-13T13:09:16.380Z,30.80
2018-05-13T13:11:44.722Z,30.79
2018-05-13T13:14:13.040Z,30.89
2018-05-13T13:16:41.412Z,29.78
2018-05-13T13:19:09.781Z,30.23
2018-05-13T13:21:38.201Z,30.69
2018-05-13T13:24:06.547Z,31.19
2018-05-13T13:26:34.901Z,31.31
2018-05-13T13:29:03.221Z,31.15
2018-05-13T13:31:32.457Z,31.32
2018-05-13T13:34:01.599Z,31.66
2018-05-13T13:36:29.905Z,31.01
2018-05-13T13:38:58.267Z,31.21
2018-05-13T13:41:26.590Z,30.69
2018-05-13T13:43:55.674Z,30.97
2018-05-13T13:46:24.032Z,30.72
2018-05-13T13:48:52.339Z,30.51
2018-05-13T13:51:20.674Z,29.90
2018-05-13T13:53:49.163Z,30.01
2018-05-13T13:56:17.507Z,30.02
2018-05-13T13:58:45.819Z,30.38
2018-05-13T14:01:14.154Z,30.69
2018-05-13T14:03:43.235Z,30.62
2018-05-13T14:06:11.570Z,30.88
2018-05-13T14:08:39.979Z,30.64
2018-05-13T14:11:08.326Z,30.79
2018-05-13T14:13:36.663Z,30.56
2018-05-13T14:16:06.119Z,30.67
2018-05-13T14:18:34.451Z,30.46
2018-05-13T14:21:03.550Z,30.59
2018-05-13T14:23:32.648Z,30.60
2018-05-13T14:26:01.740Z,30.77
2018-05-13T14:28:30.842Z,31.12
2018-05-13T14:30:59.218Z,30.87
2018-05-13T14:33:27.568Z,30.58
2018-05-13T14:35:56.714Z,30.80
2018-05-13T14:38:25.240Z,30.90
2018-05-13T14:40:53.647Z,30.17
2018-05-13T14:43:21.949Z,30.33
2018-05-13T14:45:51.151Z,30.30
2018-05-13T14:48:19.488Z,30.20
2018-05-13T14:50:47.800Z,30.29
2018-05-13T14:53:16.195Z,30.16
2018-05-13T14:55:44.563Z,29.84
2018-05-13T14:58:13.040Z,29.91
2018-05-13T15:00:41.630Z,30.12
2018-05-13T15:03:09.944Z,30.31
2018-05-13T15:05:38.261Z,30.07
2018-05-13T15:08:07.409Z,29.78
2018-05-13T15:10:35.727Z,30.35
2018-05-13T15:13:04.062Z,30.45
2018-05-13T15:15:32.441Z,30.37
2018-05-13T15:18:00.775Z,30.12
2018-05-13T15:20:29.861Z,29.95
2018-05-13T15:22:58.394Z,30.12
2018-05-13T15:25:26.705Z,29.92
2018-05-13T15:27:55.049Z,29.53
2018-05-13T15:30:23.403Z,29.82
2018-05-13T15:32:51.750Z,29.63
2018-05-13T15:35:20.048Z,29.57
2018-05-13T15:37:49.139Z,29.72
2018-05-13T15:40:18.243Z,29.71
2018-05-13T15:42:47.448Z,29.97
2018-05-13T15:45:16.639Z,30.15
2018-05-13T15:47:44.990Z,30.40
2018-05-13T15:50:13.315Z,30.25
2018-05-13T15:52:41.717Z,30.15
2018-05-13T15:55:10.088Z,30.04
2018-05-13T15:57:38.408Z,29.87
2018-05-13T16:00:06.762Z,30.16
2018-05-13T16:02:35.071Z,30.05
2018-05-13T16:05:03.418Z,29.97
2018-05-13T16:07:31.824Z,29.98
2018-05-13T16:10:00.420Z,29.46
2018-05-13T16:12:28.754Z,29.72
2018-05-13T16:14:57.133Z,29.79
2018-05-13T16:17:25.459Z,29.68
2018-05-13T16:19:54.575Z,29.57
2018-05-13T16:22:22.925Z,29.67
2018-05-13T16:24:51.232Z,29.70
2018-05-13T16:27:20.337Z,29.69
2018-05-13T16:29:48.729Z,29.53
2018-05-13T16:32:17.044Z,29.62
2018-05-13T16:34:45.408Z,29.33
2018-05-13T16:37:13.808Z,29.26
2018-05-13T16:39:42.156Z,29.35
2018-05-13T16:42:10.495Z,29.25
2018-05-13T16:44:39.621Z,29.38
2018-05-13T16:47:07.959Z,29.08
2018-05-13T16:49:36.300Z,29.25
2018-05-13T16:52:05.071Z,29.01
2018-05-13T16:54:33.375Z,29.12
2018-05-13T16:57:01.714Z,29.12
2018-05-13T16:59:30.186Z,28.96
2018-05-13T17:01:58.516Z,28.84
2018-05-13T17:04:26.865Z,29.02
2018-05-13T17:06:55.248Z,29.05
2018-05-13T17:09:23.646Z,29.02
2018-05-13T17:11:51.977Z,28.93
2018-05-13T17:14:20.727Z,28.84
2018-05-13T17:16:49.825Z,28.74
2018-05-13T17:19:18.169Z,28.92
2018-05-13T17:21:46.535Z,28.80
2018-05-13T17:24:14.949Z,28.78
2018-05-13T17:26:43.296Z,28.76
2018-05-13T17:29:11.650Z,28.54
2018-05-13T17:34:54.492Z,28.57
2018-05-13T17:37:23.691Z,28.73
2018-05-13T17:39:51.955Z,28.90
2018-05-13T17:42:20.277Z,28.39
2018-05-13T17:44:48.580Z,28.43
2018-05-13T17:47:16.938Z,28.31
2018-05-13T17:49:45.432Z,28.39
2018-05-13T17:52:13.713Z,28.40
2018-05-13T17:54:42.039Z,28.40
2018-05-13T17:57:11.535Z,28.46
2018-05-13T17:59:39.884Z,28.12
2018-05-13T18:02:08.237Z,27.73
2018-05-13T18:04:36.636Z,27.68
2018-05-13T18:07:05.384Z,27.56
2018-05-13T18:09:33.777Z,27.54
2018-05-13T18:12:02.148Z,27.51
2018-05-13T18:14:30.499Z,27.55
2018-05-13T18:16:58.881Z,27.70
2018-05-13T18:19:28.275Z,27.77
2018-05-13T18:21:56.630Z,27.88
2018-05-13T18:24:24.964Z,27.99
2018-05-13T18:26:53.336Z,27.80
2018-05-13T18:29:21.628Z,27.67
2018-05-13T18:31:50.014Z,27.70
2018-05-13T18:34:19.119Z,27.57
2018-05-13T18:36:47.428Z,27.30
2018-05-13T18:39:15.837Z,27.46
2018-05-13T18:41:45.036Z,27.41
2018-05-13T18:44:13.430Z,27.09
2018-05-13T18:46:42.526Z,27.09
2018-05-13T18:49:10.914Z,27.03
2018-05-13T18:51:39.260Z,26.88
2018-05-13T18:54:07.630Z,26.93
2018-05-13T18:56:36.002Z,26.82
2018-05-13T18:59:04.410Z,26.65
2018-05-13T19:01:32.700Z,26.47
2018-05-13T19:04:01.560Z,26.61
2018-05-13T19:06:29.882Z,26.16
2018-05-13T19:08:58.623Z,25.82
2018-05-13T19:11:27.029Z,25.90
2018-05-13T19:13:55.390Z,26.01
2018-05-13T19:16:23.720Z,26.01
2018-05-13T19:18:52.106Z,25.95
2018-05-13T19:21:20.451Z,25.84
2018-05-13T19:23:49.516Z,25.49
2018-05-13T19:26:17.924Z,25.46
2018-05-13T19:28:47.010Z,25.60
2018-05-13T19:31:15.381Z,25.52
2018-05-13T19:33:43.791Z,25.50
2018-05-13T19:36:12.109Z,25.35
2018-05-13T19:38:41.212Z,25.35
2018-05-13T19:41:09.612Z,25.07
2018-05-13T19:43:38.012Z,25.16
2018-05-13T19:46:07.151Z,25.12
2018-05-13T19:48:35.812Z,25.00
2018-05-13T19:51:04.848Z,24.90
2018-05-13T19:53:33.166Z,24.88
2018-05-13T19:56:02.305Z,24.64
2018-05-13T19:58:30.635Z,24.63
2018-05-13T20:00:58.979Z,24.70
2018-05-13T20:03:27.483Z,24.66
2018-05-13T20:05:55.727Z,24.64
2018-05-13T20:08:24.093Z,24.52
2018-05-13T20:10:52.875Z,24.38
2018-05-13T20:13:21.211Z,24.45
2018-05-13T20:15:50.369Z,24.34
2018-05-13T20:18:18.772Z,24.28
2018-05-13T20:20:47.117Z,24.16
2018-05-13T20:23:26.411Z,24.18
2018-05-13T20:25:54.680Z,24.17
2018-05-13T20:28:23.825Z,24.15
2018-05-13T20:30:52.755Z,24.21
2018-05-13T20:33:21.066Z,24.27
2018-05-13T20:35:49.400Z,24.13
2018-05-13T20:38:17.767Z,23.86
2018-05-13T20:40:46.118Z,24.02
2018-05-13T20:43:15.209Z,23.83
2018-05-13T20:45:44.327Z,23.98
2018-05-13T20:48:12.656Z,23.86
2018-05-13T20:50:40.989Z,23.85
2018-05-13T20:53:09.404Z,23.73
2018-05-13T20:55:37.753Z,23.76
2018-05-13T20:58:06.852Z,23.69
2018-05-13T21:00:35.258Z,23.64
2018-05-13T21:03:03.600Z,23.68
2018-05-13T21:05:31.987Z,23.61
2018-05-13T21:08:00.355Z,23.39
2018-05-13T21:10:28.776Z,23.35
2018-05-13T21:12:57.094Z,23.49
2018-05-13T21:15:25.646Z,23.18
2018-05-13T21:17:55.520Z,23.18
2018-05-13T21:20:23.881Z,23.32
2018-05-13T21:22:52.226Z,23.07
2018-05-13T21:25:20.545Z,22.93
2018-05-13T21:27:48.918Z,22.85
2018-05-13T21:30:17.359Z,23.01
2018-05-13T21:32:45.640Z,23.00
2018-05-13T21:35:13.982Z,23.00
2018-05-13T21:37:42.820Z,22.99
2018-05-13T21:40:11.190Z,22.77
2018-05-13T21:42:40.348Z,22.87
2018-05-13T21:45:08.793Z,22.84
2018-05-13T21:47:37.895Z,22.78
2018-05-13T21:50:06.347Z,22.81
2018-05-13T21:52:35.505Z,22.68
2018-05-13T21:55:03.852Z,22.73
2018-05-13T21:57:32.177Z,22.51
2018-05-13T22:00:00.743Z,22.39
2018-05-13T22:02:29.053Z,22.28
2018-05-13T22:05:00.132Z,22.43
2018-05-13T22:07:28.503Z,22.24
2018-05-13T22:09:56.884Z,22.04
2018-05-13T22:12:25.218Z,22.01
2018-05-13T22:14:53.570Z,22.05
2018-05-13T22:17:21.977Z,22.07
2018-05-13T22:19:50.264Z,21.90
2018-05-13T22:22:18.929Z,21.98
2018-05-13T22:24:47.282Z,21.96
2018-05-13T22:27:15.653Z,21.85
2018-05-13T22:29:44.003Z,21.97
2018-05-13T22:32:12.320Z,21.93
2018-05-13T22:34:40.721Z,21.79
2018-05-13T22:37:09.063Z,21.75
2018-05-13T22:39:37.403Z,21.86
2018-05-13T22:42:05.751Z,21.66
2018-05-13T22:44:34.462Z,21.59
2018-05-13T22:47:02.795Z,21.70
2018-05-13T22:49:31.098Z,21.60
2018-05-13T22:51:59.455Z,21.71
2018-05-13T22:54:27.785Z,21.59
2018-05-13T22:56:56.097Z,21.70
2018-05-13T22:59:24.505Z,21.54
2018-05-13T23:01:52.827Z,21.60
2018-05-13T23:04:21.790Z,21.48
2018-05-13T23:06:50.831Z,21.43
2018-05-13T23:09:19.172Z,21.32
2018-05-13T23:11:47.461Z,21.22
2018-05-13T23:14:15.795Z,21.28
2018-05-13T23:16:44.111Z,21.27
2018-05-13T23:19:12.435Z,21.13
2018-05-13T23:21:41.565Z,21.08
2018-05-13T23:24:09.894Z,21.22
2018-05-13T23:26:39.020Z,21.24
2018-05-13T23:29:07.546Z,21.30
2018-05-13T23:31:35.916Z,21.02
2018-05-13T23:34:04.263Z,21.17
2018-05-13T23:36:32.604Z,21.16
2018-05-13T23:39:00.915Z,21.17
2018-05-13T23:41:29.240Z,21.23
2018-05-13T23:43:57.590Z,21.20
2018-05-13T23:46:25.895Z,21.05
2018-05-13T23:48:54.243Z,21.16
2018-05-13T23:51:22.727Z,21.03
2018-05-13T23:53:51.081Z,21.15
2018-05-13T23:56:20.175Z,20.93
2018-05-13T23:58:49.271Z,20.89
